Terminal Aerodrome Forecast
Issued by NWS

Home | Current Version | Previous Version | Text Only | Print | Product List | Glossary On
Versions: 1 2 3 4 5 6 7 8 9 10 11 12
107
FTUS45 KREV 290522
TAFMMH
TAF
KMMH 290522Z 2906/3006 VRB03KT P6SM SCT120
     FM291800 14008KT P6SM VCSH SCT070 BKN140
     FM300000 25011KT P6SM VCSH SCT070 BKN120
     FM300400 VRB04KT P6SM SCT100=

USA.gov is the U.S. government's official web portal to all federal, state and local government web resources and services.